createdAt,value
2023-03-11T00:00:10.728Z,708.07
2023-03-11T00:00:21.743Z,709.01
2023-03-11T00:00:32.755Z,709.60
2023-03-11T00:00:46.625Z,709.04
2023-03-11T00:00:54.737Z,708.53
2023-03-11T00:01:05.726Z,708.10
2023-03-11T00:01:17.739Z,708.99
2023-03-11T00:01:28.747Z,708.97
2023-03-11T00:01:39.843Z,708.45
2023-03-11T00:01:50.781Z,708.38
2023-03-11T00:02:02.822Z,708.82
2023-03-11T00:02:13.808Z,708.28
2023-03-11T00:02:24.800Z,707.72
2023-03-11T00:02:35.722Z,708.31
2023-03-11T00:02:46.723Z,708.33
2023-03-11T00:02:57.769Z,708.05
2023-03-11T00:03:09.760Z,708.63
2023-03-11T00:03:21.734Z,708.44
2023-03-11T00:03:32.733Z,708.55
2023-03-11T00:03:43.732Z,708.27
2023-03-11T00:03:54.736Z,707.64
2023-03-11T00:04:05.752Z,708.11
2023-03-11T00:04:16.760Z,706.94
2023-03-11T00:04:28.758Z,708.10
2023-03-11T00:04:39.769Z,708.50
2023-03-11T00:04:51.936Z,707.98
2023-03-11T00:05:03.853Z,708.53
2023-03-11T00:05:15.818Z,708.18
2023-03-11T00:05:27.805Z,707.86
2023-03-11T00:05:38.856Z,707.58
2023-03-11T00:05:50.746Z,707.47
2023-03-11T00:06:01.776Z,707.47
2023-03-11T00:06:13.769Z,707.49
2023-03-11T00:06:25.730Z,707.26
2023-03-11T00:06:36.738Z,707.13
2023-03-11T00:06:47.760Z,707.90
2023-03-11T00:06:58.756Z,707.27
2023-03-11T00:07:09.777Z,706.86
2023-03-11T00:07:21.742Z,706.29
2023-03-11T00:07:32.740Z,707.62
2023-03-11T00:07:43.742Z,707.00
2023-03-11T00:07:54.750Z,707.03
2023-03-11T00:08:06.743Z,707.87
2023-03-11T00:08:17.754Z,707.36
2023-03-11T00:08:28.772Z,707.17
2023-03-11T00:08:40.752Z,706.66
2023-03-11T00:08:51.747Z,706.58
2023-03-11T00:09:02.750Z,707.24
2023-03-11T00:09:13.757Z,707.19
2023-03-11T00:09:24.757Z,706.33
2023-03-11T00:09:35.758Z,706.15
2023-03-11T00:09:47.741Z,706.57
2023-03-11T00:09:58.764Z,706.40
2023-03-11T00:10:09.800Z,706.27
2023-03-11T00:10:21.765Z,705.98
2023-03-11T00:10:32.745Z,706.27
2023-03-11T00:10:43.756Z,706.51
2023-03-11T00:10:54.765Z,706.58
2023-03-11T00:11:05.762Z,706.65
2023-03-11T00:11:16.768Z,706.48
2023-03-11T00:11:27.768Z,706.05
2023-03-11T00:11:39.731Z,705.71
2023-03-11T00:11:50.728Z,705.93
2023-03-11T00:12:01.736Z,706.01
2023-03-11T00:12:12.750Z,705.67
2023-03-11T00:12:23.747Z,705.40
2023-03-11T00:12:34.759Z,705.43
2023-03-11T00:12:45.776Z,705.44
2023-03-11T00:12:57.746Z,705.48
2023-03-11T00:13:08.745Z,705.95
2023-03-11T00:13:19.750Z,705.54
2023-03-11T00:13:30.780Z,704.97
2023-03-11T00:13:42.767Z,705.00
2023-03-11T00:13:53.767Z,706.26
2023-03-11T00:14:05.737Z,706.12
2023-03-11T00:14:16.750Z,705.48
2023-03-11T00:14:27.752Z,704.94
2023-03-11T00:14:38.756Z,705.13
2023-03-11T00:14:49.756Z,705.29
2023-03-11T00:15:00.758Z,705.28
2023-03-11T00:15:11.755Z,704.84
2023-03-11T00:15:22.758Z,704.90
2023-03-11T00:15:33.786Z,705.10
2023-03-11T00:15:44.725Z,704.95
2023-03-11T00:15:55.789Z,705.03
2023-03-11T00:16:06.731Z,705.15
2023-03-11T00:16:17.761Z,704.77
2023-03-11T00:16:28.776Z,704.58
2023-03-11T00:16:40.812Z,704.54
2023-03-11T00:16:52.803Z,704.22
2023-03-11T00:17:03.747Z,704.50
2023-03-11T00:17:14.738Z,704.69
2023-03-11T00:17:25.733Z,703.84
2023-03-11T00:17:36.733Z,703.50
2023-03-11T00:17:47.740Z,704.68
2023-03-11T00:17:58.786Z,704.90
2023-03-11T00:18:10.751Z,704.25
2023-03-11T00:18:21.736Z,703.74
2023-03-11T00:18:32.743Z,704.47
2023-03-11T00:18:43.744Z,704.19
2023-03-11T00:18:54.742Z,704.21
2023-03-11T00:19:05.744Z,704.21
2023-03-11T00:19:16.742Z,704.25
2023-03-11T00:19:27.768Z,704.01
2023-03-11T00:19:38.765Z,703.58
2023-03-11T00:19:49.767Z,703.52
2023-03-11T00:20:00.772Z,703.36
2023-03-11T00:20:11.767Z,703.54
2023-03-11T00:20:22.761Z,703.76
2023-03-11T00:20:33.770Z,703.56
2023-03-11T00:20:44.771Z,703.59
2023-03-11T00:20:56.744Z,703.22
2023-03-11T00:21:07.750Z,702.63
2023-03-11T00:21:18.734Z,703.06
2023-03-11T00:21:29.753Z,703.42
2023-03-11T00:21:40.777Z,702.90
2023-03-11T00:21:52.740Z,702.92
2023-03-11T00:22:03.743Z,702.57
2023-03-11T00:22:14.746Z,702.25
2023-03-11T00:22:25.761Z,703.00
2023-03-11T00:22:37.740Z,703.33
2023-03-11T00:22:48.756Z,703.42
2023-03-11T00:22:59.765Z,703.03
2023-03-11T00:23:11.753Z,702.72
2023-03-11T00:23:22.762Z,702.61
2023-03-11T00:23:33.753Z,702.48
2023-03-11T00:23:44.755Z,702.41
2023-03-11T00:23:55.759Z,702.42
2023-03-11T00:24:06.759Z,702.02
2023-03-11T00:24:17.764Z,702.15
2023-03-11T00:24:29.744Z,703.10
2023-03-11T00:24:40.744Z,702.48
2023-03-11T00:24:51.738Z,702.63
2023-03-11T00:25:02.750Z,702.42
2023-03-11T00:25:13.743Z,702.33
2023-03-11T00:25:24.756Z,701.95
2023-03-11T00:25:36.754Z,702.22
2023-03-11T00:25:47.779Z,702.63
2023-03-11T00:25:59.878Z,702.14
2023-03-11T00:26:11.773Z,701.87
2023-03-11T00:26:23.737Z,701.91
2023-03-11T00:26:34.742Z,701.16
2023-03-11T00:26:45.742Z,702.29
2023-03-11T00:26:56.737Z,700.81
2023-03-11T00:27:07.742Z,701.48
2023-03-11T00:27:18.736Z,701.62
2023-03-11T00:27:29.766Z,701.66
2023-03-11T00:27:40.764Z,701.50
2023-03-11T00:27:51.764Z,701.56
2023-03-11T00:28:02.758Z,701.22
2023-03-11T00:28:13.773Z,701.56
2023-03-11T00:28:25.757Z,701.54
2023-03-11T00:28:37.754Z,701.18
2023-03-11T00:28:48.753Z,701.46
2023-03-11T00:28:59.757Z,701.47
2023-03-11T00:29:10.778Z,701.45
2023-03-11T00:29:22.778Z,701.82
2023-03-11T00:29:34.760Z,700.82
2023-03-11T00:29:45.766Z,701.21
2023-03-11T00:29:56.768Z,701.75
2023-03-11T00:30:07.768Z,701.49
2023-03-11T00:30:19.747Z,701.44
2023-03-11T00:30:31.826Z,701.17
2023-03-11T00:30:42.804Z,700.75
2023-03-11T00:30:54.796Z,700.98
2023-03-11T00:31:05.908Z,700.95
2023-03-11T00:31:17.898Z,700.80
2023-03-11T00:31:28.709Z,700.72
2023-03-11T00:31:39.766Z,701.01
2023-03-11T00:31:50.760Z,701.30
2023-03-11T00:32:02.746Z,701.27
2023-03-11T00:32:13.775Z,701.03
2023-03-11T00:32:24.745Z,700.10
2023-03-11T00:32:36.863Z,700.30
2023-03-11T00:32:47.829Z,701.27
2023-03-11T00:32:58.763Z,701.32
2023-03-11T00:33:09.751Z,701.46
2023-03-11T00:33:20.735Z,700.87
2023-03-11T00:33:32.740Z,700.38
2023-03-11T00:33:43.745Z,701.28
2023-03-11T00:33:54.763Z,700.94
2023-03-11T00:34:05.765Z,699.53
2023-03-11T00:34:17.786Z,701.05
2023-03-11T00:34:29.751Z,700.54
2023-03-11T00:34:40.751Z,700.68
2023-03-11T00:34:51.730Z,700.69
2023-03-11T00:35:02.747Z,700.90
2023-03-11T00:35:13.711Z,700.47
2023-03-11T00:35:24.720Z,700.24
2023-03-11T00:35:35.775Z,700.41
2023-03-11T00:35:46.838Z,700.55
2023-03-11T00:35:58.782Z,700.00
2023-03-11T00:36:10.782Z,699.80
2023-03-11T00:36:22.768Z,700.22
2023-03-11T00:36:34.730Z,700.53
2023-03-11T00:36:45.754Z,699.80
2023-03-11T00:36:56.737Z,700.15
2023-03-11T00:37:07.730Z,700.06
2023-03-11T00:37:18.746Z,700.07
2023-03-11T00:37:29.742Z,700.21
2023-03-11T00:37:40.735Z,700.12
2023-03-11T00:37:51.733Z,699.93
2023-03-11T00:38:02.738Z,700.19
2023-03-11T00:38:13.733Z,700.19
2023-03-11T00:38:24.759Z,699.34
2023-03-11T00:38:35.823Z,700.73
2023-03-11T00:38:46.807Z,700.59
2023-03-11T00:38:57.780Z,699.08
2023-03-11T00:39:09.739Z,699.35
2023-03-11T00:39:20.747Z,699.38
2023-03-11T00:39:31.749Z,699.64
2023-03-11T00:39:42.743Z,699.68
2023-03-11T00:39:53.761Z,699.69
2023-03-11T00:40:04.767Z,699.77
2023-03-11T00:40:16.760Z,699.57
2023-03-11T00:40:27.766Z,698.85
2023-03-11T00:40:38.759Z,699.69
2023-03-11T00:40:49.778Z,699.62
2023-03-11T00:41:01.763Z,699.69
2023-03-11T00:41:12.761Z,699.62
2023-03-11T00:41:23.761Z,699.47
2023-03-11T00:41:35.742Z,699.63
2023-03-11T00:41:46.740Z,699.21
2023-03-11T00:41:57.762Z,699.19
2023-03-11T00:42:08.771Z,699.32
2023-03-11T00:42:20.767Z,699.37
2023-03-11T00:42:31.765Z,699.17
2023-03-11T00:42:42.770Z,699.00
2023-03-11T00:42:54.748Z,698.67
2023-03-11T00:43:05.736Z,698.56
2023-03-11T00:43:17.738Z,698.05
2023-03-11T00:43:28.757Z,698.41
2023-03-11T00:43:39.767Z,698.44
2023-03-11T00:43:50.765Z,699.36
2023-03-11T00:44:02.730Z,698.73
2023-03-11T00:44:13.754Z,698.04
2023-03-11T00:44:25.748Z,697.95
2023-03-11T00:44:36.762Z,698.09
2023-03-11T00:44:47.763Z,698.18
2023-03-11T00:44:59.758Z,698.03
2023-03-11T00:45:10.745Z,698.42
2023-03-11T00:45:21.736Z,698.22
2023-03-11T00:45:32.739Z,697.97
2023-03-11T00:45:43.755Z,697.84
2023-03-11T00:45:54.824Z,697.90
2023-03-11T00:46:05.780Z,698.11
2023-03-11T00:46:16.738Z,697.96
2023-03-11T00:46:27.785Z,697.67
2023-03-11T00:46:39.764Z,698.07
2023-03-11T00:46:51.746Z,697.85
2023-03-11T00:47:02.730Z,697.59
2023-03-11T00:47:13.723Z,697.69
2023-03-11T00:47:24.748Z,697.37
2023-03-11T00:47:35.749Z,697.32
2023-03-11T00:47:46.758Z,697.63
2023-03-11T00:47:58.735Z,697.92
2023-03-11T00:48:09.772Z,698.16
2023-03-11T00:48:21.756Z,697.57
2023-03-11T00:48:32.769Z,697.19
2023-03-11T00:48:44.741Z,696.73
2023-03-11T00:48:56.727Z,696.57
2023-03-11T00:49:07.730Z,697.32
2023-03-11T00:49:18.749Z,696.87
2023-03-11T00:49:29.746Z,697.41
2023-03-11T00:49:41.734Z,697.41
2023-03-11T00:49:52.758Z,697.53
2023-03-11T00:50:03.755Z,697.15
2023-03-11T00:50:14.756Z,696.19
2023-03-11T00:50:26.752Z,696.63
2023-03-11T00:50:37.754Z,696.85
2023-03-11T00:50:48.755Z,697.22
2023-03-11T00:50:59.792Z,696.95
2023-03-11T00:51:11.756Z,697.36
2023-03-11T00:51:22.768Z,697.06
2023-03-11T00:51:34.753Z,697.39
2023-03-11T00:51:45.751Z,696.84
2023-03-11T00:51:56.737Z,696.75
2023-03-11T00:52:07.742Z,696.63
2023-03-11T00:52:18.764Z,696.50
2023-03-11T00:52:29.756Z,696.10
2023-03-11T00:52:40.748Z,696.23
2023-03-11T00:52:51.734Z,695.98
2023-03-11T00:53:02.781Z,696.68
2023-03-11T00:53:14.765Z,696.70
2023-03-11T00:53:25.766Z,696.20
2023-03-11T00:53:36.762Z,695.76
2023-03-11T00:53:48.737Z,696.42
2023-03-11T00:53:59.757Z,696.09
2023-03-11T00:54:11.747Z,696.10
2023-03-11T00:54:22.765Z,695.88
2023-03-11T00:54:34.734Z,696.27
2023-03-11T00:54:45.742Z,696.79
2023-03-11T00:54:56.740Z,696.44
2023-03-11T00:55:07.746Z,695.85
2023-03-11T00:55:18.749Z,695.72
2023-03-11T00:55:30.727Z,695.63
2023-03-11T00:55:41.733Z,695.49
2023-03-11T00:55:52.733Z,695.61
2023-03-11T00:56:03.729Z,695.67
2023-03-11T00:56:14.745Z,696.03
2023-03-11T00:56:25.752Z,696.35
2023-03-11T00:56:36.762Z,695.59
2023-03-11T00:56:48.738Z,695.53
2023-03-11T00:56:59.757Z,695.30
2023-03-11T00:57:10.754Z,695.10
2023-03-11T00:57:22.735Z,695.04
2023-03-11T00:57:33.768Z,695.79
2023-03-11T00:57:44.760Z,695.61
2023-03-11T00:57:55.757Z,695.05
2023-03-11T00:58:06.775Z,695.01
2023-03-11T00:58:18.760Z,694.99
2023-03-11T00:58:29.763Z,694.97
2023-03-11T00:58:41.734Z,695.10
2023-03-11T00:58:52.730Z,694.93
2023-03-11T00:59:03.735Z,694.72
2023-03-11T00:59:14.755Z,694.63
2023-03-11T00:59:26.738Z,694.85
2023-03-11T00:59:37.726Z,694.90
2023-03-11T00:59:48.719Z,694.76
2023-03-11T00:59:59.724Z,694.65
2023-03-11T01:00:10.739Z,694.33
2023-03-11T01:00:21.744Z,694.62
2023-03-11T01:00:32.766Z,694.89
2023-03-11T01:00:44.740Z,694.58
2023-03-11T01:00:56.776Z,694.66
2023-03-11T01:01:08.814Z,694.63
2023-03-11T01:01:19.778Z,694.61
2023-03-11T01:01:31.804Z,694.42
2023-03-11T01:01:42.795Z,694.32
2023-03-11T01:01:53.753Z,694.88
2023-03-11T01:02:05.753Z,694.45
2023-03-11T01:02:16.759Z,694.01
2023-03-11T01:02:28.735Z,693.88
2023-03-11T01:02:39.749Z,693.93
2023-03-11T01:02:50.765Z,694.41
2023-03-11T01:03:01.759Z,694.44
2023-03-11T01:03:12.768Z,694.19
2023-03-11T01:03:24.734Z,693.87
2023-03-11T01:03:35.741Z,694.02
2023-03-11T01:03:46.738Z,693.98
2023-03-11T01:03:57.748Z,693.32
2023-03-11T01:04:08.760Z,693.50
2023-03-11T01:04:19.745Z,693.57
2023-03-11T01:04:30.831Z,693.87
2023-03-11T01:04:41.804Z,694.48
2023-03-11T01:04:53.831Z,693.94
2023-03-11T01:05:04.758Z,694.01
2023-03-11T01:05:15.744Z,693.65
2023-03-11T01:05:26.779Z,693.65
2023-03-11T01:05:38.755Z,693.59
2023-03-11T01:05:50.731Z,693.63
2023-03-11T01:06:01.738Z,693.80
2023-03-11T01:06:12.751Z,693.61
2023-03-11T01:06:26.163Z,693.55
2023-03-11T01:06:44.699Z,693.49
2023-03-11T01:06:46.765Z,693.29
2023-03-11T01:06:57.756Z,693.19
2023-03-11T01:07:11.203Z,693.05
2023-03-11T01:07:20.764Z,693.15
2023-03-11T01:07:31.762Z,692.84
2023-03-11T01:07:42.767Z,692.97
2023-03-11T01:07:53.768Z,693.08
2023-03-11T01:08:05.753Z,692.80
2023-03-11T01:08:17.735Z,692.66
2023-03-11T01:08:29.738Z,692.99
2023-03-11T01:08:40.745Z,692.49
2023-03-11T01:08:51.741Z,693.35
2023-03-11T01:09:02.742Z,692.97
2023-03-11T01:09:13.769Z,693.01
2023-03-11T01:09:24.763Z,693.10
2023-03-11T01:09:35.759Z,692.42
2023-03-11T01:09:46.760Z,692.34
2023-03-11T01:09:57.759Z,692.22
2023-03-11T01:10:08.768Z,692.37
2023-03-11T01:10:20.758Z,692.55
2023-03-11T01:10:31.755Z,692.36
2023-03-11T01:10:42.760Z,692.41
2023-03-11T01:10:53.752Z,692.21
2023-03-11T01:11:05.733Z,692.29
2023-03-11T01:11:16.740Z,692.21
2023-03-11T01:11:27.765Z,692.09
2023-03-11T01:11:38.778Z,691.81
2023-03-11T01:11:50.742Z,691.97
2023-03-11T01:12:02.750Z,692.04
2023-03-11T01:12:13.753Z,691.61
2023-03-11T01:12:24.748Z,691.64
2023-03-11T01:12:35.744Z,691.63
2023-03-11T01:12:47.750Z,691.51
2023-03-11T01:12:58.757Z,691.42
2023-03-11T01:13:10.735Z,691.77
2023-03-11T01:13:21.762Z,691.39
2023-03-11T01:13:32.761Z,692.72
2023-03-11T01:13:43.751Z,691.81
2023-03-11T01:13:54.752Z,692.06
2023-03-11T01:14:05.770Z,691.88
2023-03-11T01:14:18.255Z,691.76
2023-03-11T01:14:28.797Z,691.89
2023-03-11T01:14:40.792Z,692.06
2023-03-11T01:14:52.761Z,691.88
2023-03-11T01:15:03.784Z,691.96
2023-03-11T01:15:14.729Z,691.32
2023-03-11T01:15:26.748Z,691.08
2023-03-11T01:15:37.837Z,691.11
2023-03-11T01:15:49.761Z,690.92
2023-03-11T01:16:01.795Z,690.72
2023-03-11T01:16:12.761Z,690.77
2023-03-11T01:16:23.862Z,690.76
2023-03-11T01:16:35.768Z,690.93
2023-03-11T01:16:47.740Z,691.03
2023-03-11T01:16:58.750Z,690.66
2023-03-11T01:17:10.834Z,690.81
2023-03-11T01:17:22.750Z,690.83
2023-03-11T01:17:33.769Z,690.89
2023-03-11T01:17:45.749Z,690.96
2023-03-11T01:17:56.767Z,690.60
2023-03-11T01:18:08.729Z,690.24
2023-03-11T01:18:19.741Z,690.67
2023-03-11T01:18:30.756Z,690.97
2023-03-11T01:18:42.755Z,691.05
2023-03-11T01:18:54.737Z,690.71
2023-03-11T01:19:05.754Z,690.71
2023-03-11T01:19:16.766Z,690.68
2023-03-11T01:19:28.769Z,690.60
2023-03-11T01:19:40.750Z,690.56
2023-03-11T01:19:51.767Z,690.39
2023-03-11T01:20:03.742Z,690.46
2023-03-11T01:20:14.776Z,690.42
2023-03-11T01:20:26.740Z,690.34
2023-03-11T01:20:37.738Z,690.36
2023-03-11T01:20:49.728Z,690.39
2023-03-11T01:21:00.724Z,690.42
2023-03-11T01:21:11.723Z,690.64
2023-03-11T01:21:22.748Z,690.23
2023-03-11T01:21:33.748Z,690.40
2023-03-11T01:21:44.738Z,690.32
2023-03-11T01:21:56.733Z,690.13
2023-03-11T01:22:08.720Z,690.26
2023-03-11T01:22:19.765Z,690.03
2023-03-11T01:22:30.765Z,690.25
2023-03-11T01:22:42.732Z,690.39
2023-03-11T01:22:54.749Z,690.39
2023-03-11T01:23:05.748Z,689.94
2023-03-11T01:23:16.742Z,690.37
2023-03-11T01:23:27.754Z,690.33
2023-03-11T01:23:39.734Z,690.16
2023-03-11T01:23:50.715Z,690.31
2023-03-11T01:24:01.747Z,690.28
2023-03-11T01:24:12.738Z,690.08
2023-03-11T01:24:24.746Z,689.93
2023-03-11T01:24:35.746Z,689.38
2023-03-11T01:24:46.758Z,689.16
2023-03-11T01:24:57.756Z,689.74
2023-03-11T01:25:08.752Z,690.00
2023-03-11T01:25:19.738Z,689.84
2023-03-11T01:25:30.763Z,689.96
2023-03-11T01:25:41.768Z,689.48
2023-03-11T01:25:53.729Z,689.90
2023-03-11T01:26:04.735Z,689.72
2023-03-11T01:26:15.752Z,689.24
2023-03-11T01:26:26.757Z,689.37
2023-03-11T01:26:37.755Z,689.57
2023-03-11T01:26:49.739Z,689.77
2023-03-11T01:27:00.734Z,689.59
2023-03-11T01:27:12.722Z,689.48
2023-03-11T01:27:23.721Z,689.42
2023-03-11T01:27:34.732Z,689.03
2023-03-11T01:27:45.757Z,688.92
2023-03-11T01:27:56.743Z,688.76
2023-03-11T01:28:07.750Z,688.93
2023-03-11T01:28:18.746Z,689.26
2023-03-11T01:28:30.732Z,689.58
2023-03-11T01:28:41.735Z,688.76
2023-03-11T01:28:52.755Z,688.84
2023-03-11T01:29:03.755Z,689.01
2023-03-11T01:29:14.755Z,688.99
2023-03-11T01:29:25.765Z,689.22
2023-03-11T01:29:36.765Z,689.18
2023-03-11T01:29:48.738Z,689.21
2023-03-11T01:29:59.752Z,689.14
2023-03-11T01:30:11.748Z,689.02
2023-03-11T01:30:23.739Z,688.57
2023-03-11T01:30:34.755Z,688.24
2023-03-11T01:30:45.795Z,688.65
2023-03-11T01:30:57.779Z,688.94
2023-03-11T01:31:09.763Z,689.26
2023-03-11T01:31:21.805Z,689.10
2023-03-11T01:31:32.720Z,689.22
2023-03-11T01:31:43.729Z,688.76
2023-03-11T01:31:54.729Z,688.90
2023-03-11T01:32:05.724Z,688.91
2023-03-11T01:32:16.765Z,688.78
2023-03-11T01:32:27.739Z,688.49
2023-03-11T01:32:38.829Z,688.15
2023-03-11T01:32:50.946Z,688.60
2023-03-11T01:33:02.758Z,687.63
2023-03-11T01:33:13.748Z,688.09
2023-03-11T01:33:25.740Z,688.53
2023-03-11T01:33:36.727Z,688.62
2023-03-11T01:33:47.741Z,688.80
2023-03-11T01:33:58.737Z,688.43
2023-03-11T01:34:09.744Z,688.11
2023-03-11T01:34:20.759Z,687.69
2023-03-11T01:34:32.734Z,687.64
2023-03-11T01:34:43.728Z,687.50
2023-03-11T01:34:54.752Z,688.20
2023-03-11T01:35:05.747Z,688.25
2023-03-11T01:35:16.745Z,688.29
2023-03-11T01:35:27.799Z,687.83
2023-03-11T01:35:39.767Z,687.85
2023-03-11T01:35:51.838Z,687.38
2023-03-11T01:36:03.775Z,688.18
2023-03-11T01:36:14.799Z,687.87
2023-03-11T01:36:26.802Z,687.80
2023-03-11T01:36:38.755Z,687.44
2023-03-11T01:36:49.769Z,687.60
2023-03-11T01:37:01.791Z,687.74
2023-03-11T01:37:13.756Z,687.60
2023-03-11T01:37:24.762Z,687.16
2023-03-11T01:37:35.763Z,687.06
2023-03-11T01:37:46.777Z,687.53
2023-03-11T01:37:58.732Z,687.56
2023-03-11T01:38:09.773Z,687.17
2023-03-11T01:38:21.755Z,687.75
2023-03-11T01:38:32.759Z,687.49
2023-03-11T01:38:44.748Z,687.29
2023-03-11T01:38:56.736Z,687.28
2023-03-11T01:39:07.738Z,687.71
2023-03-11T01:39:18.743Z,687.12
2023-03-11T01:39:29.734Z,687.31
2023-03-11T01:39:40.727Z,687.10
2023-03-11T01:39:51.739Z,686.56
2023-03-11T01:40:02.739Z,686.60
2023-03-11T01:40:13.743Z,686.96
2023-03-11T01:40:24.746Z,687.45
2023-03-11T01:40:35.759Z,686.84
2023-03-11T01:40:47.742Z,687.05
2023-03-11T01:40:59.758Z,686.57
2023-03-11T01:41:10.759Z,686.98
2023-03-11T01:41:21.760Z,687.45
2023-03-11T01:41:33.740Z,687.20
2023-03-11T01:41:45.742Z,686.72
2023-03-11T01:41:56.761Z,686.36
2023-03-11T01:42:08.752Z,686.63
2023-03-11T01:42:19.759Z,686.29
2023-03-11T01:42:31.759Z,686.18
2023-03-11T01:42:42.762Z,686.16
2023-03-11T01:42:54.748Z,686.20
2023-03-11T01:43:05.733Z,686.54
2023-03-11T01:43:16.757Z,686.40
2023-03-11T01:43:27.758Z,686.21
2023-03-11T01:43:38.763Z,686.14
2023-03-11T01:43:50.738Z,686.10
2023-03-11T01:44:01.763Z,685.95
2023-03-11T01:44:12.770Z,686.09
2023-03-11T01:44:24.748Z,685.73
2023-03-11T01:44:35.744Z,686.21
2023-03-11T01:44:46.717Z,686.33
2023-03-11T01:44:57.717Z,686.50
2023-03-11T01:45:08.714Z,686.11
2023-03-11T01:45:19.714Z,686.35
2023-03-11T01:45:30.745Z,686.12
2023-03-11T01:45:41.746Z,686.10
2023-03-11T01:45:52.732Z,685.70
2023-03-11T01:46:03.771Z,685.85
2023-03-11T01:46:15.847Z,685.76
2023-03-11T01:46:27.817Z,685.67
2023-03-11T01:46:38.805Z,686.19
2023-03-11T01:46:49.859Z,685.90
2023-03-11T01:47:01.725Z,685.74
2023-03-11T01:47:12.739Z,685.19
2023-03-11T01:47:23.762Z,685.80
2023-03-11T01:47:34.759Z,685.68
2023-03-11T01:47:45.753Z,685.91
2023-03-11T01:47:56.758Z,685.70
2023-03-11T01:48:08.730Z,685.60
2023-03-11T01:48:19.752Z,685.35
2023-03-11T01:48:30.747Z,684.23
2023-03-11T01:48:41.763Z,685.20
2023-03-11T01:48:53.728Z,684.91
2023-03-11T01:49:04.740Z,685.23
2023-03-11T01:49:15.763Z,685.02
2023-03-11T01:49:26.737Z,684.88
2023-03-11T01:49:37.744Z,685.16
2023-03-11T01:49:48.733Z,685.28
2023-03-11T01:49:59.748Z,685.21
2023-03-11T01:50:10.734Z,685.09
2023-03-11T01:50:21.742Z,685.05
2023-03-11T01:50:32.773Z,684.90
2023-03-11T01:50:44.740Z,685.28
2023-03-11T01:50:55.744Z,685.10
2023-03-11T01:51:06.744Z,684.87
2023-03-11T01:51:17.744Z,684.44
2023-03-11T01:51:28.753Z,684.58
2023-03-11T01:51:39.755Z,684.71
2023-03-11T01:51:51.730Z,684.56
2023-03-11T01:52:02.734Z,684.74
2023-03-11T01:52:13.744Z,684.59
2023-03-11T01:52:24.747Z,684.26
2023-03-11T01:52:36.750Z,684.08
2023-03-11T01:52:47.760Z,683.95
2023-03-11T01:52:58.758Z,684.22
2023-03-11T01:53:09.765Z,684.12
2023-03-11T01:53:20.757Z,684.16
2023-03-11T01:53:32.728Z,684.20
2023-03-11T01:53:43.728Z,684.10
2023-03-11T01:53:54.732Z,684.16
2023-03-11T01:54:05.725Z,683.94
2023-03-11T01:54:16.739Z,683.91
2023-03-11T01:54:27.752Z,684.07
2023-03-11T01:54:38.757Z,683.80
2023-03-11T01:54:51.862Z,683.65
2023-03-11T01:55:01.731Z,683.27
2023-03-11T01:55:12.753Z,683.11
2023-03-11T01:55:23.757Z,683.49
2023-03-11T01:55:35.739Z,683.39
2023-03-11T01:55:46.739Z,683.58
2023-03-11T01:55:57.756Z,684.18
2023-03-11T01:56:08.762Z,684.68
2023-03-11T01:56:19.760Z,684.39
2023-03-11T01:56:30.757Z,684.13
2023-03-11T01:56:41.755Z,684.09
2023-03-11T01:56:53.774Z,683.86
2023-03-11T01:57:05.730Z,683.82
2023-03-11T01:57:16.730Z,683.49
2023-03-11T01:57:27.733Z,683.24
2023-03-11T01:57:39.736Z,682.71
2023-03-11T01:57:50.734Z,682.35
2023-03-11T01:58:01.733Z,682.57
2023-03-11T01:58:12.742Z,683.44
2023-03-11T01:58:23.781Z,683.83
2023-03-11T01:58:35.754Z,683.16
2023-03-11T01:58:46.769Z,683.09
2023-03-11T01:58:57.760Z,683.08
2023-03-11T01:59:08.764Z,683.09
2023-03-11T01:59:20.768Z,682.83
2023-03-11T01:59:32.729Z,682.74
2023-03-11T01:59:43.737Z,682.49
2023-03-11T01:59:54.732Z,682.54
2023-03-11T02:00:05.756Z,681.83
2023-03-11T02:00:17.762Z,682.33
2023-03-11T02:00:29.742Z,682.62
2023-03-11T02:00:40.784Z,682.09
2023-03-11T02:00:52.764Z,681.87
2023-03-11T02:01:04.730Z,682.81
2023-03-11T02:01:15.782Z,683.20
2023-03-11T02:01:27.854Z,681.56
2023-03-11T02:01:39.777Z,681.99
2023-03-11T02:01:51.793Z,682.05
2023-03-11T02:02:02.743Z,682.61
2023-03-11T02:02:13.810Z,682.27
2023-03-11T02:02:24.729Z,682.89
2023-03-11T02:02:35.766Z,682.17
2023-03-11T02:02:47.808Z,682.32
2023-03-11T02:02:58.805Z,682.37
2023-03-11T02:03:09.802Z,682.41
2023-03-11T02:03:20.814Z,682.35
2023-03-11T02:03:32.740Z,682.41
2023-03-11T02:03:43.763Z,682.27
2023-03-11T02:03:55.735Z,681.91
2023-03-11T02:04:06.742Z,681.81
2023-03-11T02:04:17.778Z,681.68
2023-03-11T02:04:29.748Z,681.31
2023-03-11T02:04:41.753Z,681.09
2023-03-11T02:04:53.728Z,681.32
2023-03-11T02:05:04.742Z,681.64
2023-03-11T02:05:15.756Z,681.74
2023-03-11T02:05:27.761Z,681.84
2023-03-11T02:05:39.747Z,682.07
2023-03-11T02:05:50.762Z,681.81
2023-03-11T02:06:02.740Z,682.27
2023-03-11T02:06:14.771Z,682.01
2023-03-11T02:06:26.743Z,681.23
2023-03-11T02:06:38.735Z,681.78
2023-03-11T02:06:50.682Z,682.27
2023-03-11T02:07:01.743Z,682.00
2023-03-11T02:07:12.748Z,681.38
2023-03-11T02:07:23.757Z,681.12
2023-03-11T02:07:35.731Z,680.99
2023-03-11T02:07:46.709Z,681.14
2023-03-11T02:07:57.715Z,681.12
2023-03-11T02:08:08.704Z,680.84
2023-03-11T02:08:19.708Z,680.93
2023-03-11T02:08:30.710Z,681.28
2023-03-11T02:08:41.695Z,681.50
2023-03-11T02:08:52.800Z,681.06
2023-03-11T02:09:04.763Z,680.59
2023-03-11T02:09:16.751Z,681.37
2023-03-11T02:09:28.732Z,680.81
2023-03-11T02:09:39.736Z,681.08
2023-03-11T02:09:51.734Z,680.63
2023-03-11T02:10:02.737Z,680.57
2023-03-11T02:10:13.771Z,680.92
2023-03-11T02:10:25.741Z,681.33
2023-03-11T02:10:37.736Z,681.11
2023-03-11T02:10:48.734Z,680.96
2023-03-11T02:10:59.730Z,680.80
2023-03-11T02:11:10.731Z,680.74
2023-03-11T02:11:21.731Z,680.88
2023-03-11T02:11:32.729Z,680.74
2023-03-11T02:11:43.762Z,680.84
2023-03-11T02:11:54.760Z,680.39
2023-03-11T02:12:06.739Z,680.56
2023-03-11T02:12:17.736Z,680.99
2023-03-11T02:12:28.740Z,680.48
2023-03-11T02:12:39.729Z,680.08
2023-03-11T02:12:50.733Z,679.32
2023-03-11T02:13:01.736Z,680.67
2023-03-11T02:13:12.749Z,680.95
2023-03-11T02:13:23.756Z,680.84
2023-03-11T02:13:35.727Z,680.62
2023-03-11T02:13:46.736Z,680.98
2023-03-11T02:13:57.730Z,680.45
2023-03-11T02:14:08.749Z,680.33
2023-03-11T02:14:20.747Z,680.02
2023-03-11T02:14:31.758Z,680.15
2023-03-11T02:14:42.762Z,680.10
2023-03-11T02:14:54.731Z,679.99
2023-03-11T02:15:05.761Z,680.42
2023-03-11T02:15:17.740Z,680.56
2023-03-11T02:15:28.747Z,680.43
2023-03-11T02:15:40.226Z,680.07
2023-03-11T02:15:50.768Z,680.03
2023-03-11T02:16:02.751Z,679.76
2023-03-11T02:16:13.834Z,680.03
2023-03-11T02:16:25.779Z,680.75
2023-03-11T02:16:36.777Z,680.00
2023-03-11T02:16:48.733Z,680.07
2023-03-11T02:16:59.739Z,679.98
2023-03-11T02:17:10.742Z,680.07
2023-03-11T02:17:21.747Z,679.80
2023-03-11T02:17:32.764Z,680.00
2023-03-11T02:17:43.762Z,680.28
2023-03-11T02:17:54.747Z,680.14
2023-03-11T02:18:05.749Z,680.23
2023-03-11T02:18:17.747Z,680.05
2023-03-11T02:18:28.755Z,680.05
2023-03-11T02:18:39.754Z,679.85
2023-03-11T02:18:51.724Z,679.93
2023-03-11T02:19:02.740Z,679.59
2023-03-11T02:19:13.733Z,679.75
2023-03-11T02:19:24.739Z,679.88
2023-03-11T02:19:35.740Z,679.79
2023-03-11T02:19:46.742Z,679.62
2023-03-11T02:19:58.742Z,679.44
2023-03-11T02:20:09.746Z,679.38
2023-03-11T02:20:20.753Z,679.07
2023-03-11T02:20:31.765Z,679.26
2023-03-11T02:20:43.766Z,679.09
2023-03-11T02:20:55.746Z,680.10